sensor_id;sensor_type;location;lat;lon;timestamp;pressure;altitude;pressure_sealevel;temperature;humidity
61682;BME280;47577;43.610;25.010;2023-11-18T00:00:58;99642.81;;;6.76;100.00
61682;BME280;47577;43.610;25.010;2023-11-18T00:03:24;99647.47;;;6.68;100.00
61682;BME280;47577;43.610;25.010;2023-11-18T00:05:50;99656.75;;;6.81;100.00
61682;BME280;47577;43.610;25.010;2023-11-18T00:08:15;99647.50;;;6.66;100.00
61682;BME280;47577;43.610;25.010;2023-11-18T00:10:41;99653.19;;;6.82;100.00
61682;BME280;47577;43.610;25.010;2023-11-18T00:13:06;99645.13;;;6.87;100.00
61682;BME280;47577;43.610;25.010;2023-11-18T00:15:32;99662.94;;;6.80;100.00
61682;BME280;47577;43.610;25.010;2023-11-18T00:18:03;99664.84;;;6.75;100.00
61682;BME280;47577;43.610;25.010;2023-11-18T00:20:29;99674.59;;;6.73;100.00
61682;BME280;47577;43.610;25.010;2023-11-18T00:22:56;99680.06;;;6.67;100.00
61682;BME280;47577;43.610;25.010;2023-11-18T00:25:22;99675.38;;;6.76;100.00
61682;BME280;47577;43.610;25.010;2023-11-18T00:27:48;99687.69;;;6.77;100.00
61682;BME280;47577;43.610;25.010;2023-11-18T00:30:13;99678.81;;;6.78;100.00
61682;BME280;47577;43.610;25.010;2023-11-18T00:32:39;99665.56;;;6.80;100.00
61682;BME280;47577;43.610;25.010;2023-11-18T00:35:05;99673.66;;;6.75;100.00
61682;BME280;47577;43.610;25.010;2023-11-18T00:37:32;99672.94;;;6.69;100.00
61682;BME280;47577;43.610;25.010;2023-11-18T00:39:58;99670.09;;;6.76;100.00
61682;BME280;47577;43.610;25.010;2023-11-18T00:42:24;99686.56;;;6.85;100.00
61682;BME280;47577;43.610;25.010;2023-11-18T00:44:50;99695.22;;;6.90;100.00
61682;BME280;47577;43.610;25.010;2023-11-18T00:47:16;99705.03;;;6.86;99.91
61682;BME280;47577;43.610;25.010;2023-11-18T00:49:41;99707.94;;;6.77;100.00
61682;BME280;47577;43.610;25.010;2023-11-18T00:52:07;99713.69;;;6.62;100.00
61682;BME280;47577;43.610;25.010;2023-11-18T00:54:34;99711.25;;;6.54;100.00
61682;BME280;47577;43.610;25.010;2023-11-18T00:57:00;99698.47;;;6.70;100.00
61682;BME280;47577;43.610;25.010;2023-11-18T00:59:25;99698.72;;;6.61;100.00
61682;BME280;47577;43.610;25.010;2023-11-18T01:01:52;99687.69;;;6.77;100.00
61682;BME280;47577;43.610;25.010;2023-11-18T01:04:17;99690.09;;;6.85;100.00
61682;BME280;47577;43.610;25.010;2023-11-18T01:06:45;99687.59;;;6.81;100.00
61682;BME280;47577;43.610;25.010;2023-11-18T01:09:11;99690.06;;;6.87;100.00
61682;BME280;47577;43.610;25.010;2023-11-18T01:11:37;99671.59;;;6.85;99.86
61682;BME280;47577;43.610;25.010;2023-11-18T01:14:02;99669.13;;;6.79;98.76
61682;BME280;47577;43.610;25.010;2023-11-18T01:16:28;99674.28;;;6.84;99.20
61682;BME280;47577;43.610;25.010;2023-11-18T01:18:54;99681.84;;;6.96;97.65
61682;BME280;47577;43.610;25.010;2023-11-18T01:21:20;99671.75;;;6.81;98.48
61682;BME280;47577;43.610;25.010;2023-11-18T01:23:47;99675.91;;;6.88;98.56
61682;BME280;47577;43.610;25.010;2023-11-18T01:26:14;99676.53;;;6.96;98.63
61682;BME280;47577;43.610;25.010;2023-11-18T01:28:40;99687.59;;;6.81;98.07
61682;BME280;47577;43.610;25.010;2023-11-18T01:31:10;99687.88;;;7.00;97.54
61682;BME280;47577;43.610;25.010;2023-11-18T01:33:37;99686.44;;;6.89;97.70
61682;BME280;47577;43.610;25.010;2023-11-18T01:36:06;99689.81;;;6.94;97.21
61682;BME280;47577;43.610;25.010;2023-11-18T01:38:31;99668.13;;;6.83;97.47
61682;BME280;47577;43.610;25.010;2023-11-18T01:40:57;99668.53;;;6.99;96.64
61682;BME280;47577;43.610;25.010;2023-11-18T01:43:23;99645.59;;;7.00;96.78
61682;BME280;47577;43.610;25.010;2023-11-18T01:45:48;99641.16;;;6.72;96.63
61682;BME280;47577;43.610;25.010;2023-11-18T01:48:15;99632.91;;;6.83;96.32
61682;BME280;47577;43.610;25.010;2023-11-18T01:50:44;99616.16;;;6.84;95.90
61682;BME280;47577;43.610;25.010;2023-11-18T01:53:12;99639.63;;;6.93;95.90
61682;BME280;47577;43.610;25.010;2023-11-18T01:55:40;99636.81;;;6.71;96.08
61682;BME280;47577;43.610;25.010;2023-11-18T01:58:06;99664.84;;;6.75;95.77
61682;BME280;47577;43.610;25.010;2023-11-18T02:00:37;99678.94;;;6.75;95.97
61682;BME280;47577;43.610;25.010;2023-11-18T02:03:05;99668.47;;;6.72;95.51
61682;BME280;47577;43.610;25.010;2023-11-18T02:05:32;99691.59;;;6.64;96.11
61682;BME280;47577;43.610;25.010;2023-11-18T02:08:04;99693.19;;;6.70;96.22
61682;BME280;47577;43.610;25.010;2023-11-18T02:10:31;99696.69;;;6.70;95.50
61682;BME280;47577;43.610;25.010;2023-11-18T02:13:04;99709.06;;;6.68;96.33
61682;BME280;47577;43.610;25.010;2023-11-18T02:15:33;99691.59;;;6.64;94.93
61682;BME280;47577;43.610;25.010;2023-11-18T02:18:03;99676.38;;;6.72;94.55
61682;BME280;47577;43.610;25.010;2023-11-18T02:20:32;99667.56;;;6.72;93.04
61682;BME280;47577;43.610;25.010;2023-11-18T02:23:00;99680.69;;;6.75;93.87
61682;BME280;47577;43.610;25.010;2023-11-18T02:25:27;99677.19;;;6.74;92.70
61682;BME280;47577;43.610;25.010;2023-11-18T02:27:54;99677.25;;;6.73;92.95
61682;BME280;47577;43.610;25.010;2023-11-18T02:30:19;99665.91;;;6.69;94.07
61682;BME280;47577;43.610;25.010;2023-11-18T02:35:52;99667.72;;;6.67;93.59
61682;BME280;47577;43.610;25.010;2023-11-18T02:38:30;99655.47;;;6.65;93.80
61682;BME280;47577;43.610;25.010;2023-11-18T02:41:06;99668.13;;;6.53;93.40
61682;BME280;47577;43.610;25.010;2023-11-18T02:43:35;99672.59;;;6.51;92.51
61682;BME280;47577;43.610;25.010;2023-11-18T02:46:03;99684.81;;;6.54;93.02
61682;BME280;47577;43.610;25.010;2023-11-18T02:48:30;99677.16;;;6.45;92.36
61682;BME280;47577;43.610;25.010;2023-11-18T02:50:58;99688.31;;;6.23;92.36
61682;BME280;47577;43.610;25.010;2023-11-18T02:53:25;99698.00;;;6.24;92.83
61682;BME280;47577;43.610;25.010;2023-11-18T02:55:51;99687.44;;;6.24;93.25
61682;BME280;47577;43.610;25.010;2023-11-18T02:58:20;99680.94;;;6.36;92.90
61682;BME280;47577;43.610;25.010;2023-11-18T03:00:46;99674.06;;;6.30;92.86
61682;BME280;47577;43.610;25.010;2023-11-18T03:03:11;99686.63;;;6.22;92.92
61682;BME280;47577;43.610;25.010;2023-11-18T03:05:37;99672.31;;;6.29;93.70
61682;BME280;47577;43.610;25.010;2023-11-18T03:08:04;99679.69;;;6.18;92.93
61682;BME280;47577;43.610;25.010;2023-11-18T03:10:34;99672.88;;;6.09;92.95
61682;BME280;47577;43.610;25.010;2023-11-18T03:13:00;99689.19;;;6.23;91.31
61682;BME280;47577;43.610;25.010;2023-11-18T03:15:26;99686.03;;;6.11;91.70
61682;BME280;47577;43.610;25.010;2023-11-18T03:17:52;99688.09;;;5.99;90.44
61682;BME280;47577;43.610;25.010;2023-11-18T03:20:20;99687.91;;;6.06;89.73
61682;BME280;47577;43.610;25.010;2023-11-18T03:22:49;99689.72;;;6.03;86.35
61682;BME280;47577;43.610;25.010;2023-11-18T03:25:15;99685.47;;;5.99;86.07
61682;BME280;47577;43.610;25.010;2023-11-18T03:27:42;99689.81;;;6.00;84.99
61682;BME280;47577;43.610;25.010;2023-11-18T03:30:08;99681.56;;;5.78;85.98
61682;BME280;47577;43.610;25.010;2023-11-18T03:32:35;99685.53;;;5.95;85.75
61682;BME280;47577;43.610;25.010;2023-11-18T03:35:05;99677.16;;;5.79;87.73
61682;BME280;47577;43.610;25.010;2023-11-18T03:37:38;99673.66;;;5.78;87.36
61682;BME280;47577;43.610;25.010;2023-11-18T03:40:10;99676.16;;;5.83;87.79
61682;BME280;47577;43.610;25.010;2023-11-18T03:42:37;99665.72;;;5.80;88.57
61682;BME280;47577;43.610;25.010;2023-11-18T03:45:03;99664.19;;;5.70;88.06
61682;BME280;47577;43.610;25.010;2023-11-18T03:47:29;99657.47;;;5.58;88.46
61682;BME280;47577;43.610;25.010;2023-11-18T03:49:56;99663.56;;;5.60;88.57
61682;BME280;47577;43.610;25.010;2023-11-18T03:52:22;99669.28;;;5.77;87.67
61682;BME280;47577;43.610;25.010;2023-11-18T03:54:48;99673.22;;;5.61;88.05
61682;BME280;47577;43.610;25.010;2023-11-18T03:57:14;99681.91;;;5.64;88.20
61682;BME280;47577;43.610;25.010;2023-11-18T03:59:40;99687.28;;;5.60;87.86
61682;BME280;47577;43.610;25.010;2023-11-18T04:02:08;99692.91;;;5.46;87.24
61682;BME280;47577;43.610;25.010;2023-11-18T04:04:36;99688.25;;;5.57;87.62
61682;BME280;47577;43.610;25.010;2023-11-18T04:07:02;99688.28;;;5.56;86.82
61682;BME280;47577;43.610;25.010;2023-11-18T04:09:28;99669.00;;;5.52;86.76
61682;BME280;47577;43.610;25.010;2023-11-18T04:11:54;99672.63;;;5.49;85.15
61682;BME280;47577;43.610;25.010;2023-11-18T04:14:19;99687.66;;;5.46;84.76
61682;BME280;47577;43.610;25.010;2023-11-18T04:16:46;99680.13;;;5.29;84.83
61682;BME280;47577;43.610;25.010;2023-11-18T04:19:12;99698.75;;;5.21;84.63
61682;BME280;47577;43.610;25.010;2023-11-18T04:21:38;99684.41;;;5.35;84.26
61682;BME280;47577;43.610;25.010;2023-11-18T04:24:04;99682.69;;;5.32;83.46
61682;BME280;47577;43.610;25.010;2023-11-18T04:26:31;99680.03;;;5.34;83.43
61682;BME280;47577;43.610;25.010;2023-11-18T04:28:57;99678.72;;;5.14;83.33
61682;BME280;47577;43.610;25.010;2023-11-18T04:31:24;99668.41;;;5.03;84.06
61682;BME280;47577;43.610;25.010;2023-11-18T04:33:49;99677.81;;;5.15;83.23
61682;BME280;47577;43.610;25.010;2023-11-18T04:36:15;99700.75;;;5.10;83.83
61682;BME280;47577;43.610;25.010;2023-11-18T04:38:42;99711.09;;;5.19;82.44
61682;BME280;47577;43.610;25.010;2023-11-18T04:41:09;99709.50;;;5.13;81.82
61682;BME280;47577;43.610;25.010;2023-11-18T04:43:35;99705.09;;;5.12;82.39
61682;BME280;47577;43.610;25.010;2023-11-18T04:46:01;99721.00;;;5.09;81.47
61682;BME280;47577;43.610;25.010;2023-11-18T04:48:26;99711.41;;;5.05;81.94
61682;BME280;47577;43.610;25.010;2023-11-18T04:50:52;99717.47;;;5.10;81.14
61682;BME280;47577;43.610;25.010;2023-11-18T04:53:21;99699.38;;;4.93;82.13
61682;BME280;47577;43.610;25.010;2023-11-18T04:55:46;99711.63;;;4.96;81.02
61682;BME280;47577;43.610;25.010;2023-11-18T04:58:12;99708.03;;;4.99;80.74
61682;BME280;47577;43.610;25.010;2023-11-18T05:00:38;99703.75;;;4.94;80.38
61682;BME280;47577;43.610;25.010;2023-11-18T05:03:07;99723.22;;;4.87;81.38
61682;BME280;47577;43.610;25.010;2023-11-18T05:05:37;99739.66;;;4.99;81.17
61682;BME280;47577;43.610;25.010;2023-11-18T05:08:07;99720.78;;;4.78;80.50
61682;BME280;47577;43.610;25.010;2023-11-18T05:10:34;99731.94;;;4.91;80.27
61682;BME280;47577;43.610;25.010;2023-11-18T05:13:00;99724.91;;;4.90;80.70
61682;BME280;47577;43.610;25.010;2023-11-18T05:15:26;99713.72;;;4.80;80.80
61682;BME280;47577;43.610;25.010;2023-11-18T05:17:52;99701.31;;;4.85;80.77
61682;BME280;47577;43.610;25.010;2023-11-18T05:20:19;99702.13;;;4.87;80.83
61682;BME280;47577;43.610;25.010;2023-11-18T05:22:45;99705.28;;;4.63;80.81
61682;BME280;47577;43.610;25.010;2023-11-18T05:25:10;99687.50;;;4.74;80.93
61682;BME280;47577;43.610;25.010;2023-11-18T05:27:37;99685.69;;;4.76;79.32
61682;BME280;47577;43.610;25.010;2023-11-18T05:30:03;99691.16;;;4.68;79.14
61682;BME280;47577;43.610;25.010;2023-11-18T05:32:30;99694.78;;;4.61;80.95
61682;BME280;47577;43.610;25.010;2023-11-18T05:34:56;99689.50;;;4.63;79.98
61682;BME280;47577;43.610;25.010;2023-11-18T05:37:24;99692.84;;;4.69;80.35
61682;BME280;47577;43.610;25.010;2023-11-18T05:39:50;99687.97;;;4.52;81.28
61682;BME280;47577;43.610;25.010;2023-11-18T05:42:27;99699.22;;;4.59;80.01
61682;BME280;47577;43.610;25.010;2023-11-18T05:44:53;99699.34;;;4.53;80.88
61682;BME280;47577;43.610;25.010;2023-11-18T05:47:27;99687.00;;;4.55;79.99
61682;BME280;47577;43.610;25.010;2023-11-18T05:49:53;99690.25;;;4.68;80.21
61682;BME280;47577;43.610;25.010;2023-11-18T05:52:20;99693.16;;;4.55;79.41
61682;BME280;47577;43.610;25.010;2023-11-18T05:54:46;99678.22;;;4.56;79.57
61682;BME280;47577;43.610;25.010;2023-11-18T05:57:15;99685.16;;;4.62;79.83
61682;BME280;47577;43.610;25.010;2023-11-18T05:59:42;99665.53;;;4.75;80.39
61682;BME280;47577;43.610;25.010;2023-11-18T06:02:08;99684.16;;;4.66;79.75
61682;BME280;47577;43.610;25.010;2023-11-18T06:04:38;99679.66;;;4.71;78.75
61682;BME280;47577;43.610;25.010;2023-11-18T06:07:03;99672.72;;;4.68;79.25
61682;BME280;47577;43.610;25.010;2023-11-18T06:09:30;99682.97;;;4.81;78.92
61682;BME280;47577;43.610;25.010;2023-11-18T06:11:55;99700.38;;;4.88;78.83
61682;BME280;47577;43.610;25.010;2023-11-18T06:14:22;99713.50;;;4.91;79.21
61682;BME280;47577;43.610;25.010;2023-11-18T06:16:47;99732.94;;;4.84;79.09
61682;BME280;47577;43.610;25.010;2023-11-18T06:19:16;99731.72;;;5.00;78.40
61682;BME280;47577;43.610;25.010;2023-11-18T06:21:41;99744.88;;;5.02;79.05
61682;BME280;47577;43.610;25.010;2023-11-18T06:24:07;99732.81;;;4.90;78.70
61682;BME280;47577;43.610;25.010;2023-11-18T06:26:34;99740.53;;;4.99;77.61
61682;BME280;47577;43.610;25.010;2023-11-18T06:29:02;99730.47;;;4.76;78.42
61682;BME280;47577;43.610;25.010;2023-11-18T06:31:29;99737.91;;;4.99;78.52
61682;BME280;47577;43.610;25.010;2023-11-18T06:33:55;99728.31;;;4.95;78.48
61682;BME280;47577;43.610;25.010;2023-11-18T06:36:22;99729.59;;;4.75;78.53
61682;BME280;47577;43.610;25.010;2023-11-18T06:38:52;99716.09;;;4.92;79.54
61682;BME280;47577;43.610;25.010;2023-11-18T06:41:19;99718.09;;;4.81;78.23
61682;BME280;47577;43.610;25.010;2023-11-18T06:43:48;99729.44;;;4.85;77.74
61682;BME280;47577;43.610;25.010;2023-11-18T06:46:25;99727.50;;;4.93;78.85
61682;BME280;47577;43.610;25.010;2023-11-18T06:48:53;99701.34;;;4.84;79.17
61682;BME280;47577;43.610;25.010;2023-11-18T06:51:28;99707.22;;;4.97;77.84
61682;BME280;47577;43.610;25.010;2023-11-18T06:53:54;99701.06;;;4.98;78.83
61682;BME280;47577;43.610;25.010;2023-11-18T06:56:20;99689.53;;;5.02;78.63
61682;BME280;47577;43.610;25.010;2023-11-18T06:58:46;99681.06;;;4.87;79.07
61682;BME280;47577;43.610;25.010;2023-11-18T07:01:13;99704.41;;;5.04;78.24
61682;BME280;47577;43.610;25.010;2023-11-18T07:03:40;99702.56;;;5.08;77.81
61682;BME280;47577;43.610;25.010;2023-11-18T07:06:06;99698.47;;;4.94;79.17
61682;BME280;47577;43.610;25.010;2023-11-18T07:08:32;99704.25;;;5.12;78.41
61682;BME280;47577;43.610;25.010;2023-11-18T07:11:00;99712.78;;;5.23;78.35
61682;BME280;47577;43.610;25.010;2023-11-18T07:13:27;99710.34;;;5.14;77.99
61682;BME280;47577;43.610;25.010;2023-11-18T07:15:53;99724.75;;;5.38;77.36
61682;BME280;47577;43.610;25.010;2023-11-18T07:18:23;99719.13;;;5.52;76.31
61682;BME280;47577;43.610;25.010;2023-11-18T07:20:49;99714.88;;;5.46;76.55
61682;BME280;47577;43.610;25.010;2023-11-18T07:23:17;99711.03;;;5.60;76.87
61682;BME280;47577;43.610;25.010;2023-11-18T07:25:43;99706.75;;;5.56;75.58
61682;BME280;47577;43.610;25.010;2023-11-18T07:28:11;99704.19;;;5.53;76.32
61682;BME280;47577;43.610;25.010;2023-11-18T07:30:36;99700.56;;;5.57;76.52
61682;BME280;47577;43.610;25.010;2023-11-18T07:33:03;99712.03;;;5.56;75.47
61682;BME280;47577;43.610;25.010;2023-11-18T07:35:29;99715.59;;;5.53;76.68
61682;BME280;47577;43.610;25.010;2023-11-18T07:37:55;99725.41;;;5.46;76.25
61682;BME280;47577;43.610;25.010;2023-11-18T07:40:22;99704.97;;;5.56;75.84
61682;BME280;47577;43.610;25.010;2023-11-18T07:42:56;99727.16;;;5.47;76.13
61682;BME280;47577;43.610;25.010;2023-11-18T07:45:23;99716.34;;;5.58;76.01
61682;BME280;47577;43.610;25.010;2023-11-18T07:47:52;99707.06;;;5.42;77.23
61682;BME280;47577;43.610;25.010;2023-11-18T07:50:20;99709.03;;;5.34;77.27
61682;BME280;47577;43.610;25.010;2023-11-18T07:52:50;99698.91;;;5.53;77.07
61682;BME280;47577;43.610;25.010;2023-11-18T07:55:16;99706.78;;;5.54;77.26
61682;BME280;47577;43.610;25.010;2023-11-18T07:57:42;99688.44;;;5.49;76.89
61682;BME280;47577;43.610;25.010;2023-11-18T08:00:08;99664.06;;;5.40;76.29
61682;BME280;47577;43.610;25.010;2023-11-18T08:02:39;99669.25;;;5.43;76.95
61682;BME280;47577;43.610;25.010;2023-11-18T08:05:05;99652.59;;;5.41;76.83
61682;BME280;47577;43.610;25.010;2023-11-18T08:07:35;99673.06;;;5.29;76.27
61682;BME280;47577;43.610;25.010;2023-11-18T08:10:04;99669.69;;;5.24;76.54
61682;BME280;47577;43.610;25.010;2023-11-18T08:12:31;99678.31;;;5.31;77.33
61682;BME280;47577;43.610;25.010;2023-11-18T08:14:57;99668.31;;;5.45;77.40
61682;BME280;47577;43.610;25.010;2023-11-18T08:17:25;99668.78;;;5.61;77.09
61682;BME280;47577;43.610;25.010;2023-11-18T08:19:51;99680.25;;;5.60;76.73
61682;BME280;47577;43.610;25.010;2023-11-18T08:22:18;99678.91;;;5.80;76.64
61682;BME280;47577;43.610;25.010;2023-11-18T08:24:49;99691.13;;;5.82;76.54
61682;BME280;47577;43.610;25.010;2023-11-18T08:27:15;99676.75;;;5.94;75.56
61682;BME280;47577;43.610;25.010;2023-11-18T08:29:40;99684.25;;;5.77;75.50
61682;BME280;47577;43.610;25.010;2023-11-18T08:32:06;99681.00;;;5.65;75.93
61682;BME280;47577;43.610;25.010;2023-11-18T08:34:35;99695.09;;;5.64;77.38
61682;BME280;47577;43.610;25.010;2023-11-18T08:37:06;99695.41;;;5.88;75.48
61682;BME280;47577;43.610;25.010;2023-11-18T08:39:32;99694.13;;;5.68;76.08
61682;BME280;47577;43.610;25.010;2023-11-18T08:41:58;99691.06;;;5.85;75.17
61682;BME280;47577;43.610;25.010;2023-11-18T08:44:24;99692.44;;;5.66;75.18
61682;BME280;47577;43.610;25.010;2023-11-18T08:46:53;99689.38;;;5.47;75.69
61682;BME280;47577;43.610;25.010;2023-11-18T08:49:19;99695.66;;;5.41;76.43
61682;BME280;47577;43.610;25.010;2023-11-18T08:51:50;99700.59;;;5.55;76.84
61682;BME280;47577;43.610;25.010;2023-11-18T08:54:24;99681.38;;;5.50;76.72
61682;BME280;47577;43.610;25.010;2023-11-18T08:57:03;99681.22;;;5.56;76.43
61682;BME280;47577;43.610;25.010;2023-11-18T08:59:29;99649.31;;;5.31;77.16
61682;BME280;47577;43.610;25.010;2023-11-18T09:01:56;99672.88;;;5.39;76.95
61682;BME280;47577;43.610;25.010;2023-11-18T09:04:27;99671.84;;;5.46;76.24
61682;BME280;47577;43.610;25.010;2023-11-18T09:06:53;99659.69;;;5.39;76.84
61682;BME280;47577;43.610;25.010;2023-11-18T09:09:25;99684.50;;;5.30;76.27
61682;BME280;47577;43.610;25.010;2023-11-18T09:11:54;99649.91;;;5.42;75.55
61682;BME280;47577;43.610;25.010;2023-11-18T09:14:26;99633.81;;;5.55;74.92
61682;BME280;47577;43.610;25.010;2023-11-18T09:16:52;99646.84;;;5.61;76.18
61682;BME280;47577;43.610;25.010;2023-11-18T09:19:21;99625.81;;;5.58;75.50
61682;BME280;47577;43.610;25.010;2023-11-18T09:21:50;99639.44;;;5.75;74.85
61682;BME280;47577;43.610;25.010;2023-11-18T09:24:20;99601.34;;;5.53;75.38
61682;BME280;47577;43.610;25.010;2023-11-18T09:26:46;99646.47;;;5.75;75.13
61682;BME280;47577;43.610;25.010;2023-11-18T09:29:16;99621.25;;;5.64;76.73
61682;BME280;47577;43.610;25.010;2023-11-18T09:31:45;99642.16;;;5.72;74.80
61682;BME280;47577;43.610;25.010;2023-11-18T09:34:14;99622.00;;;5.70;75.87
61682;BME280;47577;43.610;25.010;2023-11-18T09:36:43;99628.81;;;5.78;74.94
61682;BME280;47577;43.610;25.010;2023-11-18T09:39:09;99627.66;;;5.89;75.70
61682;BME280;47577;43.610;25.010;2023-11-18T09:41:42;99621.59;;;5.85;74.36
61682;BME280;47577;43.610;25.010;2023-11-18T09:44:07;99625.31;;;5.76;75.79
61682;BME280;47577;43.610;25.010;2023-11-18T09:46:35;99626.06;;;5.81;74.80
61682;BME280;47577;43.610;25.010;2023-11-18T09:49:26;99620.59;;;5.89;74.57
61682;BME280;47577;43.610;25.010;2023-11-18T09:51:59;99612.59;;;5.92;75.61
61682;BME280;47577;43.610;25.010;2023-11-18T10:00:15;99625.81;;;5.91;74.44
61682;BME280;47577;43.610;25.010;2023-11-18T10:02:58;99631.88;;;5.94;74.48
61682;BME280;47577;43.610;25.010;2023-11-18T10:05:26;99645.03;;;5.96;73.93
61682;BME280;47577;43.610;25.010;2023-11-18T10:07:53;99648.59;;;5.95;75.19
61682;BME280;47577;43.610;25.010;2023-11-18T10:10:21;99620.56;;;5.91;73.83
61682;BME280;47577;43.610;25.010;2023-11-18T10:12:48;99630.72;;;6.06;74.06
61682;BME280;47577;43.610;25.010;2023-11-18T10:15:29;99625.00;;;6.21;74.29
61682;BME280;47577;43.610;25.010;2023-11-18T10:17:56;99622.84;;;6.04;73.63
61682;BME280;47577;43.610;25.010;2023-11-18T10:20:44;99640.47;;;6.02;73.66
61682;BME280;47577;43.610;25.010;2023-11-18T10:23:12;99637.81;;;6.04;73.82
61682;BME280;47577;43.610;25.010;2023-11-18T10:25:52;99658.59;;;6.16;72.09
61682;BME280;47577;43.610;25.010;2023-11-18T10:28:31;99629.28;;;6.27;72.96
61682;BME280;47577;43.610;25.010;2023-11-18T10:31:05;99625.06;;;6.20;72.98
61682;BME280;47577;43.610;25.010;2023-11-18T10:33:35;99671.03;;;6.13;73.96
61682;BME280;47577;43.610;25.010;2023-11-18T10:36:02;99618.31;;;6.10;74.54
61682;BME280;47577;43.610;25.010;2023-11-18T10:38:38;99636.66;;;6.14;74.81
61682;BME280;47577;43.610;25.010;2023-11-18T10:41:09;99634.44;;;5.99;74.35
61682;BME280;47577;43.610;25.010;2023-11-18T10:43:37;99637.97;;;5.99;74.50
61682;BME280;47577;43.610;25.010;2023-11-18T10:46:05;99633.50;;;6.01;75.29
61682;BME280;47577;43.610;25.010;2023-11-18T10:48:43;99638.78;;;6.01;75.06
61682;BME280;47577;43.610;25.010;2023-11-18T10:51:13;99640.28;;;6.10;75.28
61682;BME280;47577;43.610;25.010;2023-11-18T10:53:42;99641.50;;;5.98;74.83
61682;BME280;47577;43.610;25.010;2023-11-18T10:56:22;99620.34;;;6.00;75.46
61682;BME280;47577;43.610;25.010;2023-11-18T10:59:06;99622.66;;;6.12;75.32
61682;BME280;47577;43.610;25.010;2023-11-18T11:01:34;99645.97;;;5.95;75.23
61682;BME280;47577;43.610;25.010;2023-11-18T11:04:04;99623.53;;;6.11;75.34
61682;BME280;47577;43.610;25.010;2023-11-18T11:06:32;99618.47;;;6.03;74.46
61682;BME280;47577;43.610;25.010;2023-11-18T11:08:59;99617.22;;;6.17;73.69
61682;BME280;47577;43.610;25.010;2023-11-18T11:11:25;99633.13;;;6.14;73.98
61682;BME280;47577;43.610;25.010;2023-11-18T11:13:57;99627.25;;;6.04;73.41
61682;BME280;47577;43.610;25.010;2023-11-18T11:16:28;99627.22;;;6.06;75.07
61682;BME280;47577;43.610;25.010;2023-11-18T11:19:04;99644.66;;;6.11;74.00
61682;BME280;47577;43.610;25.010;2023-11-18T11:21:48;99622.78;;;6.08;72.54
61682;BME280;47577;43.610;25.010;2023-11-18T11:24:32;99668.53;;;6.07;73.91
61682;BME280;47577;43.610;25.010;2023-11-18T11:27:09;99638.84;;;5.98;74.48
61682;BME280;47577;43.610;25.010;2023-11-18T11:30:02;99638.91;;;5.95;74.41
61682;BME280;47577;43.610;25.010;2023-11-18T11:32:45;99642.22;;;6.03;73.43
61682;BME280;47577;43.610;25.010;2023-11-18T11:35:19;99639.59;;;6.03;73.38
61682;BME280;47577;43.610;25.010;2023-11-18T11:37:48;99638.00;;;5.98;73.17
61682;BME280;47577;43.610;25.010;2023-11-18T11:40:16;99635.41;;;5.96;72.74
61682;BME280;47577;43.610;25.010;2023-11-18T11:42:52;99625.50;;;6.04;72.64
61682;BME280;47577;43.610;25.010;2023-11-18T11:45:23;99637.09;;;5.97;73.08
61682;BME280;47577;43.610;25.010;2023-11-18T11:47:55;99636.13;;;6.01;73.44
61682;BME280;47577;43.610;25.010;2023-11-18T11:53:21;99650.59;;;5.86;72.88
61682;BME280;47577;43.610;25.010;2023-11-18T11:55:50;99628.53;;;5.88;73.86
61682;BME280;47577;43.610;25.010;2023-11-18T11:58:31;99642.81;;;5.80;73.41
61682;BME280;47577;43.610;25.010;2023-11-18T12:01:01;99630.97;;;5.97;73.65
61682;BME280;47577;43.610;25.010;2023-11-18T12:03:37;99681.00;;;6.01;73.60
61682;BME280;47577;43.610;25.010;2023-11-18T12:06:04;99647.34;;;6.10;73.07
61682;BME280;47577;43.610;25.010;2023-11-18T12:08:35;99647.38;;;6.08;72.98
61682;BME280;47577;43.610;25.010;2023-11-18T12:11:05;99640.63;;;5.98;72.80
61682;BME280;47577;43.610;25.010;2023-11-18T12:13:32;99670.38;;;6.04;72.47
61682;BME280;47577;43.610;25.010;2023-11-18T12:16:05;99662.47;;;6.03;72.80
61682;BME280;47577;43.610;25.010;2023-11-18T12:18:31;99671.28;;;6.02;72.56
61682;BME280;47577;43.610;25.010;2023-11-18T12:21:02;99662.28;;;6.11;73.22
61682;BME280;47577;43.610;25.010;2023-11-18T12:23:29;99663.09;;;6.13;73.44
61682;BME280;47577;43.610;25.010;2023-11-18T12:25:56;99671.34;;;6.00;72.84
61682;BME280;47577;43.610;25.010;2023-11-18T12:28:30;99663.63;;;6.26;72.42
61682;BME280;47577;43.610;25.010;2023-11-18T12:31:00;99667.22;;;6.23;72.08
61682;BME280;47577;43.610;25.010;2023-11-18T12:42:01;99682.44;;;6.13;73.23
61682;BME280;47577;43.610;25.010;2023-11-18T12:44:36;99685.19;;;6.09;72.82
61682;BME280;47577;43.610;25.010;2023-11-18T12:47:05;99684.34;;;6.08;72.71
61682;BME280;47577;43.610;25.010;2023-11-18T12:49:45;99671.34;;;6.00;72.44
61682;BME280;47577;43.610;25.010;2023-11-18T12:52:15;99682.59;;;6.07;72.03
61682;BME280;47577;43.610;25.010;2023-11-18T12:54:44;99701.69;;;6.17;72.25
61682;BME280;47577;43.610;25.010;2023-11-18T12:57:36;99680.63;;;6.15;72.23
61682;BME280;47577;43.610;25.010;2023-11-18T13:00:04;99659.41;;;6.18;72.10
61682;BME280;47577;43.610;25.010;2023-11-18T13:02:36;99673.47;;;6.20;72.28
61682;BME280;47577;43.610;25.010;2023-11-18T13:05:07;99684.03;;;6.20;72.24
61682;BME280;47577;43.610;25.010;2023-11-18T13:07:36;99697.63;;;6.05;72.33
61682;BME280;47577;43.610;25.010;2023-11-18T13:10:03;99697.00;;;5.94;73.59
61682;BME280;47577;43.610;25.010;2023-11-18T13:12:30;99691.69;;;5.95;73.08
61682;BME280;47577;43.610;25.010;2023-11-18T13:14:56;99723.16;;;6.04;72.61
61682;BME280;47577;43.610;25.010;2023-11-18T13:17:22;99701.38;;;5.95;72.55
61682;BME280;47577;43.610;25.010;2023-11-18T13:19:48;99710.16;;;5.97;72.85
61682;BME280;47577;43.610;25.010;2023-11-18T13:22:17;99701.16;;;6.04;73.97
61682;BME280;47577;43.610;25.010;2023-11-18T13:24:45;99707.22;;;6.08;73.29
61682;BME280;47577;43.610;25.010;2023-11-18T13:27:16;99719.84;;;5.95;73.09